createdAt,value
2018-11-25T00:02:26.907Z,60.63
2018-11-25T00:05:00.879Z,46.33
2018-11-25T00:07:35.879Z,53.17
2018-11-25T00:11:13.407Z,52.93
2018-11-25T00:13:47.394Z,50.47
2018-11-25T00:16:21.386Z,58.60
2018-11-25T00:18:55.421Z,59.70
2018-11-25T00:21:29.374Z,58.93
2018-11-25T00:24:03.362Z,57.60
2018-11-25T00:26:37.187Z,53.10
2018-11-25T00:29:11.118Z,66.80
2018-11-25T00:31:44.965Z,65.37
2018-11-25T00:34:18.888Z,73.00
2018-11-25T00:36:52.757Z,57.47
2018-11-25T00:39:26.959Z,75.93
2018-11-25T00:42:00.822Z,65.00
2018-11-25T00:44:35.056Z,75.47
2018-11-25T00:47:08.902Z,81.40
2018-11-25T00:49:42.785Z,69.63
2018-11-25T00:52:16.649Z,61.53
2018-11-25T00:54:50.629Z,60.83
2018-11-25T00:57:24.457Z,78.93
2018-11-25T00:59:58.441Z,57.30
2018-11-25T01:02:32.315Z,58.23
2018-11-25T01:05:06.319Z,57.33
2018-11-25T01:07:40.341Z,59.57
2018-11-25T01:10:15.792Z,65.30
2018-11-25T01:12:49.900Z,58.33
2018-11-25T01:15:23.784Z,67.60
2018-11-25T01:17:57.698Z,59.00
2018-11-25T01:20:31.980Z,60.50
2018-11-25T01:23:06.526Z,71.33
2018-11-25T01:25:40.571Z,60.00
2018-11-25T01:28:14.468Z,62.27
2018-11-25T01:30:48.984Z,60.60
2018-11-25T01:33:24.129Z,58.30
2018-11-25T01:35:58.072Z,58.67
2018-11-25T01:38:32.044Z,63.70
2018-11-25T01:41:06.906Z,51.53
2018-11-25T01:43:40.832Z,59.53
2018-11-25T01:46:14.676Z,61.33
2018-11-25T01:48:48.818Z,62.90
2018-11-25T01:51:23.325Z,65.67
2018-11-25T01:53:57.464Z,55.10
2018-11-25T01:56:31.576Z,51.37
2018-11-25T01:59:05.446Z,61.50
2018-11-25T02:01:39.414Z,64.60
2018-11-25T02:04:14.791Z,59.70
2018-11-25T02:06:48.749Z,63.83
2018-11-25T02:09:22.547Z,55.23
2018-11-25T02:11:57.273Z,62.73
2018-11-25T02:14:31.506Z,58.13
2018-11-25T02:17:05.393Z,59.07
2018-11-25T02:19:39.253Z,54.53
2018-11-25T02:22:13.099Z,55.10
2018-11-25T02:24:46.975Z,60.70
2018-11-25T02:27:20.859Z,68.00
2018-11-25T02:29:54.735Z,61.97
2018-11-25T02:32:28.637Z,51.57
2018-11-25T02:35:02.510Z,50.37
2018-11-25T02:37:36.563Z,55.20
2018-11-25T02:40:11.730Z,61.00
2018-11-25T02:42:45.805Z,49.87
2018-11-25T02:45:20.264Z,59.60
2018-11-25T02:47:54.166Z,63.13
2018-11-25T02:50:31.435Z,59.20
2018-11-25T02:53:06.999Z,72.73
2018-11-25T02:55:40.834Z,51.27
2018-11-25T02:58:14.788Z,55.73
2018-11-25T03:00:48.676Z,54.30
2018-11-25T03:03:22.560Z,60.47
2018-11-25T03:05:56.413Z,59.57
2018-11-25T03:08:30.294Z,61.73
2018-11-25T03:11:04.167Z,56.50
2018-11-25T03:13:38.093Z,49.67
2018-11-25T03:16:11.936Z,62.67
2018-11-25T03:18:45.897Z,48.63
2018-11-25T03:21:19.742Z,60.40
2018-11-25T03:23:53.596Z,61.13
2018-11-25T03:26:27.431Z,58.13
2018-11-25T03:29:01.602Z,55.67
2018-11-25T03:31:35.431Z,56.57
2018-11-25T03:34:09.300Z,52.77
2018-11-25T03:36:43.135Z,50.37
2018-11-25T03:39:16.984Z,60.23
2018-11-25T03:41:50.816Z,52.37
2018-11-25T03:44:24.701Z,63.87
2018-11-25T03:46:58.680Z,60.77
2018-11-25T03:49:32.602Z,50.07
2018-11-25T03:52:06.741Z,73.97
2018-11-25T03:54:40.802Z,49.23
2018-11-25T03:57:14.692Z,53.77
2018-11-25T03:59:48.680Z,60.43
2018-11-25T04:02:22.502Z,58.40
2018-11-25T04:04:56.363Z,52.87
2018-11-25T04:07:30.173Z,59.10
2018-11-25T04:10:04.334Z,48.70
2018-11-25T04:12:38.203Z,66.20
2018-11-25T04:15:17.045Z,62.10
2018-11-25T04:17:51.006Z,50.80
2018-11-25T04:20:24.893Z,53.20
2018-11-25T04:22:58.740Z,54.33
2018-11-25T04:25:32.740Z,57.87
2018-11-25T04:28:06.610Z,49.53
2018-11-25T04:30:40.525Z,49.40
2018-11-25T04:33:14.477Z,46.20
2018-11-25T04:35:48.451Z,56.83
2018-11-25T04:38:22.306Z,58.47
2018-11-25T04:40:56.190Z,44.67
2018-11-25T04:43:30.039Z,61.27
2018-11-25T04:46:03.993Z,47.57
2018-11-25T04:48:37.825Z,55.97
2018-11-25T04:51:11.784Z,55.97
2018-11-25T04:53:45.686Z,55.40
2018-11-25T04:56:19.529Z,54.37
2018-11-25T04:58:53.371Z,47.43
2018-11-25T05:01:27.317Z,54.87
2018-11-25T05:04:01.182Z,50.10
2018-11-25T05:06:35.063Z,45.87
2018-11-25T05:09:09.512Z,52.33
2018-11-25T05:11:43.478Z,56.27
2018-11-25T05:14:17.300Z,50.30
2018-11-25T05:16:51.207Z,46.43
2018-11-25T05:19:25.037Z,51.13
2018-11-25T05:21:58.923Z,52.87
2018-11-25T05:24:32.859Z,51.73
2018-11-25T05:27:07.068Z,54.10
2018-11-25T05:29:40.926Z,49.47
2018-11-25T05:32:14.787Z,49.77
2018-11-25T05:34:48.733Z,54.90
2018-11-25T05:37:22.601Z,53.83
2018-11-25T05:39:56.424Z,44.67
2018-11-25T05:42:30.271Z,56.20
2018-11-25T05:45:04.227Z,50.07
2018-11-25T05:47:38.295Z,50.60
2018-11-25T05:50:14.361Z,53.30
2018-11-25T05:52:48.350Z,44.00
2018-11-25T05:55:22.199Z,56.00
2018-11-25T05:57:56.130Z,50.50
2018-11-25T06:00:33.913Z,50.93
2018-11-25T06:03:07.792Z,48.17
2018-11-25T06:05:41.704Z,52.03
2018-11-25T06:08:15.550Z,53.50
2018-11-25T06:10:49.392Z,50.53
2018-11-25T06:13:23.257Z,47.07
2018-11-25T06:15:57.070Z,55.13
2018-11-25T06:18:31.111Z,52.50
2018-11-25T06:21:04.961Z,51.07
2018-11-25T06:23:39.040Z,48.63
2018-11-25T06:26:12.863Z,58.17
2018-11-25T06:28:46.769Z,54.97
2018-11-25T06:31:20.745Z,55.97
2018-11-25T06:33:54.995Z,53.27
2018-11-25T06:36:28.896Z,59.93
2018-11-25T06:39:02.987Z,55.80
2018-11-25T06:41:36.842Z,58.50
2018-11-25T06:44:10.723Z,68.77
2018-11-25T06:46:44.589Z,62.70
2018-11-25T06:49:18.538Z,46.97
2018-11-25T06:51:52.432Z,58.83
2018-11-25T06:54:26.533Z,55.67
2018-11-25T06:57:00.371Z,56.03
2018-11-25T06:59:34.275Z,57.27
2018-11-25T07:02:08.185Z,56.53
2018-11-25T07:04:42.096Z,54.10
2018-11-25T07:07:15.962Z,50.63
2018-11-25T07:09:50.329Z,59.10
2018-11-25T07:12:24.178Z,51.27
2018-11-25T07:14:58.088Z,53.07
2018-11-25T07:17:32.098Z,55.63
2018-11-25T07:20:06.681Z,51.77
2018-11-25T07:22:40.552Z,54.63
2018-11-25T07:25:20.582Z,59.37
2018-11-25T07:27:54.469Z,54.13
2018-11-25T07:30:29.078Z,50.70
2018-11-25T07:33:02.965Z,72.87
2018-11-25T07:35:36.924Z,58.93
2018-11-25T07:38:10.837Z,53.03
2018-11-25T07:40:44.820Z,55.07
2018-11-25T07:43:18.650Z,50.93
2018-11-25T07:45:52.516Z,53.67
2018-11-25T07:48:26.370Z,50.30
2018-11-25T07:51:00.297Z,46.70
2018-11-25T07:53:34.151Z,51.93
2018-11-25T07:56:08.060Z,55.40
2018-11-25T07:58:41.990Z,43.03
2018-11-25T08:01:15.923Z,52.50
2018-11-25T08:03:49.756Z,56.00
2018-11-25T08:06:23.898Z,54.10
2018-11-25T08:08:57.724Z,46.80
2018-11-25T08:11:31.620Z,49.43
2018-11-25T08:14:05.605Z,53.63
2018-11-25T08:16:39.587Z,48.50
2018-11-25T08:19:14.298Z,46.07
2018-11-25T08:21:48.260Z,47.90
2018-11-25T08:24:22.167Z,54.00
2018-11-25T08:26:56.021Z,58.57
2018-11-25T08:29:29.860Z,48.10
2018-11-25T08:32:03.766Z,60.97
2018-11-25T08:34:37.626Z,50.00
2018-11-25T08:37:11.525Z,54.03
2018-11-25T08:39:45.613Z,52.13
2018-11-25T08:42:20.656Z,67.70
2018-11-25T08:44:54.581Z,62.33
2018-11-25T08:47:28.586Z,51.37
2018-11-25T08:50:02.442Z,61.20
2018-11-25T08:52:36.352Z,53.53
2018-11-25T08:55:12.442Z,57.93
2018-11-25T08:57:46.464Z,49.40
2018-11-25T09:00:22.099Z,63.27
2018-11-25T09:02:57.013Z,53.97
2018-11-25T09:05:30.986Z,56.23
2018-11-25T09:08:04.919Z,56.20
2018-11-25T09:10:38.738Z,55.30
2018-11-25T09:13:12.603Z,70.10
2018-11-25T09:15:46.428Z,60.13
2018-11-25T09:18:20.443Z,58.03
2018-11-25T09:20:54.302Z,53.87
2018-11-25T09:23:28.167Z,57.57
2018-11-25T09:26:02.015Z,62.00
2018-11-25T09:28:36.031Z,59.43
2018-11-25T09:31:09.843Z,56.37
2018-11-25T09:33:43.696Z,62.53
2018-11-25T09:36:17.539Z,66.93
2018-11-25T09:38:51.451Z,61.80
2018-11-25T09:41:25.350Z,54.63
2018-11-25T09:43:59.182Z,59.07
2018-11-25T09:46:33.024Z,68.10
2018-11-25T09:49:07.176Z,62.33
2018-11-25T09:51:41.094Z,56.43
2018-11-25T09:54:15.023Z,60.30
2018-11-25T09:56:48.869Z,62.67
2018-11-25T09:59:22.747Z,69.07
2018-11-25T10:01:56.579Z,66.67
2018-11-25T10:04:30.460Z,64.43
2018-11-25T10:07:04.269Z,78.67
2018-11-25T10:09:38.231Z,72.53
2018-11-25T10:12:12.075Z,70.43
2018-11-25T10:14:46.074Z,60.53
2018-11-25T10:17:20.035Z,57.27
2018-11-25T10:19:53.987Z,67.73
2018-11-25T10:22:27.853Z,71.90
2018-11-25T10:25:01.772Z,64.37
2018-11-25T10:27:35.601Z,71.40
2018-11-25T10:30:18.033Z,63.60
2018-11-25T10:32:54.910Z,68.10
2018-11-25T10:35:28.953Z,64.37
2018-11-25T10:38:02.810Z,67.07
2018-11-25T10:40:36.678Z,70.33
2018-11-25T10:43:10.615Z,67.50
2018-11-25T10:45:44.511Z,74.30
2018-11-25T10:48:18.323Z,66.80
2018-11-25T10:50:52.212Z,66.90
2018-11-25T10:53:26.354Z,70.37
2018-11-25T10:56:01.062Z,66.93
2018-11-25T10:58:35.070Z,62.10
2018-11-25T11:01:13.959Z,83.17
2018-11-25T11:03:53.023Z,119.30
2018-11-25T11:06:32.621Z,115.83
2018-11-25T11:09:08.393Z,81.43
2018-11-25T11:11:42.614Z,75.93
2018-11-25T11:14:16.580Z,90.97
2018-11-25T11:16:53.891Z,86.87
2018-11-25T11:19:24.595Z,95.47
2018-11-25T11:21:58.561Z,89.97
2018-11-25T11:24:32.528Z,71.93
2018-11-25T11:27:06.551Z,83.67
2018-11-25T11:29:40.459Z,90.43
2018-11-25T11:32:15.376Z,92.33
2018-11-25T11:34:49.320Z,96.13
2018-11-25T11:37:23.332Z,80.60
2018-11-25T11:39:57.247Z,76.10
2018-11-25T11:42:31.134Z,82.20
2018-11-25T11:45:06.494Z,73.87
2018-11-25T11:47:42.580Z,85.77
2018-11-25T11:50:17.919Z,80.50
2018-11-25T11:52:51.832Z,69.87
2018-11-25T11:55:25.722Z,67.87
2018-11-25T11:57:59.635Z,71.80
2018-11-25T12:00:33.600Z,91.93
2018-11-25T12:03:07.621Z,85.90
2018-11-25T12:05:41.520Z,74.77
2018-11-25T12:08:15.476Z,74.97
2018-11-25T12:10:49.325Z,81.73
2018-11-25T12:13:23.726Z,72.83
2018-11-25T12:15:58.735Z,75.53
2018-11-25T12:18:32.605Z,66.93
2018-11-25T12:21:06.853Z,65.83
2018-11-25T12:23:40.711Z,62.00
2018-11-25T12:26:14.685Z,64.50
2018-11-25T12:28:48.547Z,65.37
2018-11-25T12:31:22.556Z,61.77
2018-11-25T12:33:56.407Z,62.10
2018-11-25T12:36:30.277Z,67.70
2018-11-25T12:39:04.807Z,62.00
2018-11-25T12:41:40.734Z,65.57
2018-11-25T12:44:17.008Z,64.93
2018-11-25T12:46:50.878Z,61.47
2018-11-25T12:49:24.831Z,66.13
2018-11-25T12:51:58.786Z,64.43
2018-11-25T12:54:32.861Z,65.67
2018-11-25T12:57:07.057Z,61.07
2018-11-25T12:59:41.022Z,69.33
2018-11-25T13:02:14.893Z,63.47
2018-11-25T13:04:48.846Z,63.10
2018-11-25T13:07:22.989Z,71.27
2018-11-25T13:09:56.886Z,69.67
2018-11-25T13:12:30.717Z,64.70
2018-11-25T13:15:04.646Z,64.17
2018-11-25T13:17:38.577Z,69.67
2018-11-25T13:20:13.685Z,67.03
2018-11-25T13:22:47.678Z,77.30
2018-11-25T13:25:21.682Z,67.10
2018-11-25T13:27:55.558Z,65.60
2018-11-25T13:30:31.081Z,69.20
2018-11-25T13:33:05.395Z,60.07
2018-11-25T13:35:40.552Z,72.63
2018-11-25T13:38:15.741Z,63.70
2018-11-25T13:40:49.801Z,64.83
2018-11-25T13:43:23.766Z,60.70
2018-11-25T13:45:57.798Z,64.30
2018-11-25T13:48:31.631Z,69.00
2018-11-25T13:51:07.046Z,70.67
2018-11-25T13:53:40.940Z,59.60
2018-11-25T13:56:14.924Z,66.70
2018-11-25T13:58:48.761Z,63.43
2018-11-25T14:01:22.650Z,59.50
2018-11-25T14:03:56.615Z,64.40
2018-11-25T14:06:30.592Z,69.27
2018-11-25T14:09:06.643Z,76.23
2018-11-25T14:11:40.599Z,68.13
2018-11-25T14:14:14.450Z,64.80
2018-11-25T14:16:48.443Z,68.63
2018-11-25T14:19:22.288Z,77.00
2018-11-25T14:21:56.224Z,70.93
2018-11-25T14:24:30.079Z,66.00
2018-11-25T14:27:04.553Z,69.17
2018-11-25T14:29:38.404Z,67.37
2018-11-25T14:32:12.454Z,77.80
2018-11-25T14:34:46.291Z,75.43
2018-11-25T14:37:20.330Z,72.03
2018-11-25T14:39:54.340Z,72.50
2018-11-25T14:42:28.227Z,78.23
2018-11-25T14:45:02.514Z,68.43
2018-11-25T14:47:36.723Z,77.30
2018-11-25T14:50:12.920Z,70.87
2018-11-25T14:52:48.308Z,77.80
2018-11-25T14:55:22.287Z,79.60
2018-11-25T14:57:56.640Z,81.07
2018-11-25T15:00:31.250Z,81.13
2018-11-25T15:03:06.712Z,69.83
2018-11-25T15:05:42.854Z,74.07
2018-11-25T15:08:18.660Z,76.93
2018-11-25T15:10:52.728Z,69.30
2018-11-25T15:13:26.695Z,71.00
2018-11-25T15:16:01.772Z,78.10
2018-11-25T15:18:35.798Z,78.13
2018-11-25T15:21:10.716Z,75.00
2018-11-25T15:23:44.677Z,67.77
2018-11-25T15:26:19.278Z,69.03
2018-11-25T15:28:53.327Z,67.03
2018-11-25T15:31:27.400Z,80.27
2018-11-25T15:34:01.370Z,76.97
2018-11-25T15:36:35.286Z,68.50
2018-11-25T15:39:11.529Z,65.23
2018-11-25T15:41:45.411Z,68.80
2018-11-25T15:44:19.354Z,68.23
2018-11-25T15:46:53.184Z,73.33
2018-11-25T15:49:27.129Z,72.23
2018-11-25T15:52:01.007Z,64.73
2018-11-25T15:54:34.919Z,77.40
2018-11-25T15:57:08.847Z,65.47
2018-11-25T15:59:42.997Z,68.50
2018-11-25T16:02:16.974Z,66.00
2018-11-25T16:04:50.995Z,60.53
2018-11-25T16:07:24.916Z,64.00
2018-11-25T16:09:59.065Z,60.33
2018-11-25T16:12:32.956Z,61.00
2018-11-25T16:15:10.478Z,56.27
2018-11-25T16:17:44.440Z,56.00
2018-11-25T16:20:23.493Z,58.60
2018-11-25T16:23:00.900Z,60.47
2018-11-25T16:25:43.954Z,59.87
2018-11-25T16:28:22.099Z,62.97
2018-11-25T16:31:13.187Z,63.93
2018-11-25T16:33:47.199Z,62.60
2018-11-25T16:36:21.219Z,53.43
2018-11-25T16:38:55.180Z,65.03
2018-11-25T16:41:32.643Z,59.67
2018-11-25T16:44:07.348Z,72.00
2018-11-25T16:46:41.893Z,56.63
2018-11-25T16:49:15.853Z,55.97
2018-11-25T16:51:49.714Z,57.77
2018-11-25T16:54:23.807Z,54.90
2018-11-25T16:56:57.722Z,58.50
2018-11-25T16:59:31.812Z,49.17
2018-11-25T17:02:05.976Z,49.37
2018-11-25T17:04:39.849Z,54.93
2018-11-25T17:07:13.810Z,56.83
2018-11-25T17:09:47.682Z,54.93
2018-11-25T17:12:21.570Z,56.83
2018-11-25T17:14:55.415Z,50.90
2018-11-25T17:17:29.243Z,58.23
2018-11-25T17:20:03.141Z,55.40
2018-11-25T17:22:37.099Z,53.27
2018-11-25T17:25:12.317Z,54.43
2018-11-25T17:27:46.224Z,51.00
2018-11-25T17:30:20.982Z,53.87
2018-11-25T17:32:55.059Z,51.80
2018-11-25T17:35:30.363Z,56.30
2018-11-25T17:38:04.318Z,50.23
2018-11-25T17:40:38.696Z,56.60
2018-11-25T17:43:14.962Z,54.37
2018-11-25T17:45:48.914Z,59.10
2018-11-25T17:48:22.879Z,61.93
2018-11-25T17:50:57.617Z,57.67
2018-11-25T17:53:31.647Z,58.53
2018-11-25T17:56:06.236Z,60.53
2018-11-25T17:58:40.347Z,60.43
2018-11-25T18:01:14.288Z,60.10
2018-11-25T18:03:48.550Z,56.87
2018-11-25T18:06:22.738Z,57.07
2018-11-25T18:08:57.187Z,54.33
2018-11-25T18:11:32.488Z,58.77
2018-11-25T18:14:07.890Z,59.90
2018-11-25T18:16:41.847Z,58.87
2018-11-25T18:19:19.433Z,57.60
2018-11-25T18:22:03.762Z,56.83
2018-11-25T18:24:37.632Z,65.00
2018-11-25T18:27:11.881Z,62.77
2018-11-25T18:29:45.800Z,59.60
2018-11-25T18:32:19.731Z,61.27
2018-11-25T18:34:54.761Z,59.37
2018-11-25T18:37:28.647Z,55.27
2018-11-25T18:40:02.584Z,56.73
2018-11-25T18:42:36.608Z,58.90
2018-11-25T18:45:13.218Z,53.80
2018-11-25T18:47:48.206Z,53.47
2018-11-25T18:50:22.925Z,57.93
2018-11-25T18:52:56.771Z,53.07
2018-11-25T18:55:29.285Z,54.80
2018-11-25T18:58:03.271Z,53.47
2018-11-25T19:01:41.020Z,57.53
2018-11-25T19:04:14.879Z,50.13
2018-11-25T19:06:49.561Z,51.60
2018-11-25T19:09:23.663Z,52.00
2018-11-25T19:11:57.584Z,51.93
2018-11-25T19:14:31.444Z,52.93
2018-11-25T19:17:05.783Z,53.43
2018-11-25T19:19:39.776Z,52.00
2018-11-25T19:22:14.689Z,49.63
2018-11-25T19:24:48.913Z,51.80
2018-11-25T19:27:23.084Z,52.53
2018-11-25T19:29:57.164Z,54.63
2018-11-25T19:32:30.991Z,49.23
2018-11-25T19:35:05.216Z,48.57
2018-11-25T19:37:39.066Z,48.43
2018-11-25T19:40:15.274Z,48.63
2018-11-25T19:42:49.280Z,47.50
2018-11-25T19:45:27.249Z,47.00
2018-11-25T19:48:01.245Z,46.60
2018-11-25T19:50:36.384Z,44.53
2018-11-25T19:53:11.446Z,47.53
2018-11-25T19:55:46.771Z,43.33
2018-11-25T19:58:20.805Z,43.40
2018-11-25T20:00:56.032Z,45.83
2018-11-25T20:03:30.894Z,43.33
2018-11-25T20:06:05.072Z,48.23
2018-11-25T20:08:39.299Z,43.37
2018-11-25T20:11:13.296Z,41.73
2018-11-25T20:13:47.353Z,44.03
2018-11-25T20:16:26.327Z,41.10
2018-11-25T20:19:00.189Z,41.90
2018-11-25T20:21:38.989Z,41.57
2018-11-25T20:24:12.880Z,40.20
2018-11-25T20:26:51.986Z,40.93
2018-11-25T20:29:26.648Z,40.17
2018-11-25T20:32:06.274Z,38.03
2018-11-25T20:34:40.231Z,43.47
2018-11-25T20:37:15.775Z,38.10
2018-11-25T20:39:49.862Z,39.07
2018-11-25T20:42:24.339Z,37.33
2018-11-25T20:44:59.228Z,40.03
2018-11-25T20:47:33.204Z,42.33
2018-11-25T20:50:08.270Z,42.83
2018-11-25T20:52:47.367Z,39.20
2018-11-25T20:55:21.326Z,37.70
2018-11-25T20:57:55.324Z,41.27
2018-11-25T21:00:30.428Z,37.90
2018-11-25T21:03:04.474Z,41.57
2018-11-25T21:05:38.447Z,40.40
2018-11-25T21:08:12.278Z,43.53
2018-11-25T21:10:46.195Z,42.73
2018-11-25T21:13:20.039Z,44.03
2018-11-25T21:15:53.905Z,43.73
2018-11-25T21:18:27.758Z,42.07
2018-11-25T21:21:01.628Z,52.57
2018-11-25T21:23:35.469Z,42.40
2018-11-25T21:26:09.567Z,47.10
2018-11-25T21:28:43.404Z,44.03
2018-11-25T21:31:17.362Z,46.93
2018-11-25T21:33:51.202Z,38.90
2018-11-25T21:36:25.149Z,40.27
2018-11-25T21:38:58.997Z,40.40
2018-11-25T21:41:32.849Z,41.87
2018-11-25T21:44:07.443Z,38.70
2018-11-25T21:46:41.383Z,40.63
2018-11-25T21:49:15.244Z,39.43
2018-11-25T21:51:49.136Z,39.37
2018-11-25T21:54:23.070Z,39.20
2018-11-25T21:56:57.574Z,38.33
2018-11-25T21:59:30.884Z,35.60
2018-11-25T22:02:04.778Z,37.80
2018-11-25T22:04:38.619Z,39.07
2018-11-25T22:07:12.640Z,35.63
2018-11-25T22:09:46.470Z,36.63
2018-11-25T22:12:20.324Z,37.87
2018-11-25T22:14:54.246Z,37.30
2018-11-25T22:17:28.272Z,36.57
2018-11-25T22:20:02.111Z,38.30
2018-11-25T22:22:36.127Z,37.77
2018-11-25T22:25:14.025Z,35.03
2018-11-25T22:27:48.015Z,37.43
2018-11-25T22:30:23.256Z,37.53
2018-11-25T22:32:57.192Z,38.00
2018-11-25T22:35:37.627Z,35.87
2018-11-25T22:38:11.575Z,35.20
2018-11-25T22:40:45.408Z,37.80
2018-11-25T22:43:19.326Z,36.37
2018-11-25T22:45:53.195Z,36.97
2018-11-25T22:48:27.173Z,38.67
2018-11-25T22:51:01.061Z,35.63
2018-11-25T22:53:35.136Z,35.27
2018-11-25T22:56:08.981Z,36.63
2018-11-25T22:58:42.930Z,34.93
2018-11-25T23:01:16.795Z,36.83
2018-11-25T23:04:02.421Z,36.50
2018-11-25T23:06:47.331Z,36.83
2018-11-25T23:09:21.307Z,37.67
2018-11-25T23:11:55.145Z,36.43
2018-11-25T23:14:29.041Z,37.57
2018-11-25T23:17:03.032Z,37.60
2018-11-25T23:19:37.933Z,36.90
2018-11-25T23:22:11.794Z,38.13
2018-11-25T23:24:45.932Z,37.80
2018-11-25T23:27:19.752Z,35.43
2018-11-25T23:29:53.807Z,34.63
2018-11-25T23:32:27.638Z,36.63
2018-11-25T23:35:01.508Z,37.17
2018-11-25T23:37:35.338Z,35.53
2018-11-25T23:40:10.426Z,39.10
2018-11-25T23:42:44.386Z,35.57
2018-11-25T23:45:18.393Z,37.03
2018-11-25T23:47:52.205Z,35.13
2018-11-25T23:50:26.146Z,36.93
2018-11-25T23:53:00.133Z,35.53
2018-11-25T23:55:34.055Z,38.70
2018-11-25T23:58:07.916Z,36.37
